sensor_id;sensor_type;location;lat;lon;timestamp;P1;durP1;ratioP1;P2;durP2;ratioP2
27560;SDS011;15003;47.476;11.990;2022-09-13T00:00:20;2.50;;;1.48;;
27560;SDS011;15003;47.476;11.990;2022-09-13T00:02:48;2.58;;;1.73;;
27560;SDS011;15003;47.476;11.990;2022-09-13T00:05:13;2.25;;;1.50;;
27560;SDS011;15003;47.476;11.990;2022-09-13T00:07:39;2.33;;;1.58;;
27560;SDS011;15003;47.476;11.990;2022-09-13T00:10:05;3.28;;;1.70;;
27560;SDS011;15003;47.476;11.990;2022-09-13T00:12:31;3.20;;;1.88;;
27560;SDS011;15003;47.476;11.990;2022-09-13T00:14:57;2.33;;;1.70;;
27560;SDS011;15003;47.476;11.990;2022-09-13T00:17:23;3.60;;;1.85;;
27560;SDS011;15003;47.476;11.990;2022-09-13T00:19:50;2.53;;;1.80;;
27560;SDS011;15003;47.476;11.990;2022-09-13T00:22:15;3.10;;;1.80;;
27560;SDS011;15003;47.476;11.990;2022-09-13T00:24:41;3.75;;;1.77;;
27560;SDS011;15003;47.476;11.990;2022-09-13T00:27:07;2.97;;;1.50;;
27560;SDS011;15003;47.476;11.990;2022-09-13T00:29:33;3.00;;;1.75;;
27560;SDS011;15003;47.476;11.990;2022-09-13T00:31:58;3.03;;;1.67;;
27560;SDS011;15003;47.476;11.990;2022-09-13T00:34:24;3.13;;;1.80;;
27560;SDS011;15003;47.476;11.990;2022-09-13T00:36:50;2.95;;;1.70;;
27560;SDS011;15003;47.476;11.990;2022-09-13T00:39:15;1.73;;;1.33;;
27560;SDS011;15003;47.476;11.990;2022-09-13T00:41:41;2.92;;;1.67;;
27560;SDS011;15003;47.476;11.990;2022-09-13T00:47:37;2.00;;;1.80;;
27560;SDS011;15003;47.476;11.990;2022-09-13T00:50:17;2.22;;;1.80;;
27560;SDS011;15003;47.476;11.990;2022-09-13T00:52:48;1.70;;;1.60;;
27560;SDS011;15003;47.476;11.990;2022-09-13T00:55:25;2.85;;;1.70;;
27560;SDS011;15003;47.476;11.990;2022-09-13T00:58:19;3.88;;;1.60;;
27560;SDS011;15003;47.476;11.990;2022-09-13T01:00:50;4.00;;;1.65;;
27560;SDS011;15003;47.476;11.990;2022-09-13T01:03:17;4.90;;;1.60;;
27560;SDS011;15003;47.476;11.990;2022-09-13T01:05:47;2.95;;;1.70;;
27560;SDS011;15003;47.476;11.990;2022-09-13T01:08:20;2.03;;;1.70;;
27560;SDS011;15003;47.476;11.990;2022-09-13T01:10:47;2.90;;;1.73;;
27560;SDS011;15003;47.476;11.990;2022-09-13T01:13:19;5.63;;;1.75;;
27560;SDS011;15003;47.476;11.990;2022-09-13T01:15:47;3.15;;;1.80;;
27560;SDS011;15003;47.476;11.990;2022-09-13T01:18:13;2.63;;;1.63;;
27560;SDS011;15003;47.476;11.990;2022-09-13T01:30:15;3.00;;;2.53;;
27560;SDS011;15003;47.476;11.990;2022-09-13T01:38:29;3.40;;;1.80;;
27560;SDS011;15003;47.476;11.990;2022-09-13T01:43:57;3.05;;;2.08;;
27560;SDS011;15003;47.476;11.990;2022-09-13T01:55:29;2.38;;;1.70;;
27560;SDS011;15003;47.476;11.990;2022-09-13T02:03:34;4.43;;;1.60;;
27560;SDS011;15003;47.476;11.990;2022-09-13T02:06:17;3.20;;;1.63;;
27560;SDS011;15003;47.476;11.990;2022-09-13T02:08:48;2.47;;;1.60;;
27560;SDS011;15003;47.476;11.990;2022-09-13T02:11:22;3.95;;;1.80;;
27560;SDS011;15003;47.476;11.990;2022-09-13T02:13:49;1.92;;;1.60;;
27560;SDS011;15003;47.476;11.990;2022-09-13T02:19:05;1.60;;;1.50;;
27560;SDS011;15003;47.476;11.990;2022-09-13T02:21:40;1.70;;;1.48;;
27560;SDS011;15003;47.476;11.990;2022-09-13T02:24:12;1.73;;;1.50;;
27560;SDS011;15003;47.476;11.990;2022-09-13T02:26:49;2.88;;;1.80;;
27560;SDS011;15003;47.476;11.990;2022-09-13T02:29:18;2.00;;;1.80;;
27560;SDS011;15003;47.476;11.990;2022-09-13T02:32:08;1.95;;;1.67;;
27560;SDS011;15003;47.476;11.990;2022-09-13T02:37:26;2.20;;;1.58;;
27560;SDS011;15003;47.476;11.990;2022-09-13T02:39:58;2.00;;;1.73;;
27560;SDS011;15003;47.476;11.990;2022-09-13T02:42:44;2.58;;;1.80;;
27560;SDS011;15003;47.476;11.990;2022-09-13T02:45:18;2.35;;;1.65;;
27560;SDS011;15003;47.476;11.990;2022-09-13T02:48:08;1.80;;;1.40;;
27560;SDS011;15003;47.476;11.990;2022-09-13T02:59:15;1.77;;;1.37;;
27560;SDS011;15003;47.476;11.990;2022-09-13T03:01:48;2.13;;;1.38;;
27560;SDS011;15003;47.476;11.990;2022-09-13T03:04:20;1.30;;;1.20;;
27560;SDS011;15003;47.476;11.990;2022-09-13T03:06:48;1.30;;;1.20;;
27560;SDS011;15003;47.476;11.990;2022-09-13T03:09:14;2.05;;;1.33;;
27560;SDS011;15003;47.476;11.990;2022-09-13T03:35:02;2.20;;;1.77;;
27560;SDS011;15003;47.476;11.990;2022-09-13T03:37:52;1.60;;;1.40;;
27560;SDS011;15003;47.476;11.990;2022-09-13T03:43:26;1.67;;;1.10;;
27560;SDS011;15003;47.476;11.990;2022-09-13T03:45:58;1.85;;;1.00;;
27560;SDS011;15003;47.476;11.990;2022-09-13T03:48:28;1.30;;;1.20;;
27560;SDS011;15003;47.476;11.990;2022-09-13T03:50:56;1.38;;;1.10;;
27560;SDS011;15003;47.476;11.990;2022-09-13T03:53:22;2.20;;;1.10;;
27560;SDS011;15003;47.476;11.990;2022-09-13T03:55:52;1.83;;;1.08;;
27560;SDS011;15003;47.476;11.990;2022-09-13T03:58:18;1.83;;;1.20;;
27560;SDS011;15003;47.476;11.990;2022-09-13T04:00:45;1.52;;;1.20;;
27560;SDS011;15003;47.476;11.990;2022-09-13T04:03:11;1.58;;;1.30;;
27560;SDS011;15003;47.476;11.990;2022-09-13T04:05:38;1.60;;;1.50;;
27560;SDS011;15003;47.476;11.990;2022-09-13T04:08:04;1.60;;;1.30;;
27560;SDS011;15003;47.476;11.990;2022-09-13T04:10:31;2.58;;;1.80;;
27560;SDS011;15003;47.476;11.990;2022-09-13T04:12:58;1.73;;;1.30;;
27560;SDS011;15003;47.476;11.990;2022-09-13T04:15:25;2.00;;;1.50;;
27560;SDS011;15003;47.476;11.990;2022-09-13T04:17:52;1.52;;;1.42;;
27560;SDS011;15003;47.476;11.990;2022-09-13T04:20:18;1.70;;;1.50;;
27560;SDS011;15003;47.476;11.990;2022-09-13T04:22:49;1.60;;;1.42;;
27560;SDS011;15003;47.476;11.990;2022-09-13T04:25:21;1.92;;;1.40;;
27560;SDS011;15003;47.476;11.990;2022-09-13T04:27:48;2.80;;;1.50;;
27560;SDS011;15003;47.476;11.990;2022-09-13T04:30:22;1.67;;;1.30;;
27560;SDS011;15003;47.476;11.990;2022-09-13T04:32:48;1.92;;;1.50;;
27560;SDS011;15003;47.476;11.990;2022-09-13T04:35:14;1.77;;;1.35;;
27560;SDS011;15003;47.476;11.990;2022-09-13T04:37:40;2.40;;;1.05;;
27560;SDS011;15003;47.476;11.990;2022-09-13T04:40:05;1.85;;;1.20;;
27560;SDS011;15003;47.476;11.990;2022-09-13T04:42:32;1.73;;;1.20;;
27560;SDS011;15003;47.476;11.990;2022-09-13T04:44:58;1.40;;;1.30;;
27560;SDS011;15003;47.476;11.990;2022-09-13T04:47:24;1.70;;;1.40;;
27560;SDS011;15003;47.476;11.990;2022-09-13T04:49:49;1.20;;;1.00;;
27560;SDS011;15003;47.476;11.990;2022-09-13T04:52:15;4.05;;;1.42;;
27560;SDS011;15003;47.476;11.990;2022-09-13T04:54:41;1.70;;;1.40;;
27560;SDS011;15003;47.476;11.990;2022-09-13T04:57:07;1.80;;;1.40;;
27560;SDS011;15003;47.476;11.990;2022-09-13T04:59:33;1.95;;;1.20;;
27560;SDS011;15003;47.476;11.990;2022-09-13T05:01:58;1.45;;;1.35;;
27560;SDS011;15003;47.476;11.990;2022-09-13T05:04:24;1.60;;;1.27;;
27560;SDS011;15003;47.476;11.990;2022-09-13T05:06:50;2.90;;;1.80;;
27560;SDS011;15003;47.476;11.990;2022-09-13T05:09:15;2.40;;;1.60;;
27560;SDS011;15003;47.476;11.990;2022-09-13T05:11:41;3.67;;;1.50;;
27560;SDS011;15003;47.476;11.990;2022-09-13T05:14:10;2.55;;;1.65;;
27560;SDS011;15003;47.476;11.990;2022-09-13T05:16:36;2.47;;;1.70;;
27560;SDS011;15003;47.476;11.990;2022-09-13T05:19:02;3.22;;;1.83;;
27560;SDS011;15003;47.476;11.990;2022-09-13T05:21:29;2.92;;;2.00;;
27560;SDS011;15003;47.476;11.990;2022-09-13T05:23:55;2.80;;;1.50;;
27560;SDS011;15003;47.476;11.990;2022-09-13T05:26:22;3.15;;;2.80;;
27560;SDS011;15003;47.476;11.990;2022-09-13T05:28:50;2.42;;;1.95;;
27560;SDS011;15003;47.476;11.990;2022-09-13T05:31:18;2.05;;;1.50;;
27560;SDS011;15003;47.476;11.990;2022-09-13T05:33:54;3.53;;;1.70;;
27560;SDS011;15003;47.476;11.990;2022-09-13T05:36:23;1.85;;;1.75;;
27560;SDS011;15003;47.476;11.990;2022-09-13T05:38:50;3.10;;;1.65;;
27560;SDS011;15003;47.476;11.990;2022-09-13T05:41:18;2.42;;;1.73;;
27560;SDS011;15003;47.476;11.990;2022-09-13T05:43:44;2.08;;;1.83;;
27560;SDS011;15003;47.476;11.990;2022-09-13T05:46:11;1.77;;;1.65;;
27560;SDS011;15003;47.476;11.990;2022-09-13T05:48:39;2.70;;;2.10;;
27560;SDS011;15003;47.476;11.990;2022-09-13T05:51:10;2.58;;;1.77;;
27560;SDS011;15003;47.476;11.990;2022-09-13T05:53:47;2.80;;;1.70;;
27560;SDS011;15003;47.476;11.990;2022-09-13T05:56:21;3.33;;;1.70;;
27560;SDS011;15003;47.476;11.990;2022-09-13T05:58:52;3.00;;;1.70;;
27560;SDS011;15003;47.476;11.990;2022-09-13T06:01:20;2.88;;;2.10;;
27560;SDS011;15003;47.476;11.990;2022-09-13T06:03:49;2.47;;;1.80;;
27560;SDS011;15003;47.476;11.990;2022-09-13T06:06:17;4.28;;;1.95;;
27560;SDS011;15003;47.476;11.990;2022-09-13T06:08:44;2.20;;;1.77;;
27560;SDS011;15003;47.476;11.990;2022-09-13T06:11:11;2.05;;;1.60;;
27560;SDS011;15003;47.476;11.990;2022-09-13T06:13:39;2.42;;;1.70;;
27560;SDS011;15003;47.476;11.990;2022-09-13T06:16:06;3.22;;;1.98;;
27560;SDS011;15003;47.476;11.990;2022-09-13T06:18:34;2.63;;;1.80;;
27560;SDS011;15003;47.476;11.990;2022-09-13T06:21:01;3.28;;;1.55;;
27560;SDS011;15003;47.476;11.990;2022-09-13T06:23:28;4.93;;;3.15;;
27560;SDS011;15003;47.476;11.990;2022-09-13T06:26:13;3.50;;;2.58;;
27560;SDS011;15003;47.476;11.990;2022-09-13T06:28:42;4.55;;;2.40;;
27560;SDS011;15003;47.476;11.990;2022-09-13T06:31:13;4.03;;;2.70;;
27560;SDS011;15003;47.476;11.990;2022-09-13T06:33:41;4.20;;;2.55;;
27560;SDS011;15003;47.476;11.990;2022-09-13T06:36:09;4.35;;;2.30;;
27560;SDS011;15003;47.476;11.990;2022-09-13T06:38:40;5.07;;;1.95;;
27560;SDS011;15003;47.476;11.990;2022-09-13T06:41:10;5.05;;;2.20;;
27560;SDS011;15003;47.476;11.990;2022-09-13T06:43:38;2.65;;;2.00;;
27560;SDS011;15003;47.476;11.990;2022-09-13T06:46:05;4.28;;;1.90;;
27560;SDS011;15003;47.476;11.990;2022-09-13T06:48:35;2.22;;;1.70;;
27560;SDS011;15003;47.476;11.990;2022-09-13T06:51:05;3.08;;;2.00;;
27560;SDS011;15003;47.476;11.990;2022-09-13T06:53:33;2.83;;;1.83;;
27560;SDS011;15003;47.476;11.990;2022-09-13T06:56:10;3.53;;;2.00;;
27560;SDS011;15003;47.476;11.990;2022-09-13T06:58:51;3.15;;;1.77;;
27560;SDS011;15003;47.476;11.990;2022-09-13T07:01:22;4.50;;;1.90;;
27560;SDS011;15003;47.476;11.990;2022-09-13T07:03:54;2.78;;;1.80;;
27560;SDS011;15003;47.476;11.990;2022-09-13T07:06:29;2.95;;;2.00;;
27560;SDS011;15003;47.476;11.990;2022-09-13T07:08:58;6.68;;;2.10;;
27560;SDS011;15003;47.476;11.990;2022-09-13T07:11:28;3.78;;;2.17;;
27560;SDS011;15003;47.476;11.990;2022-09-13T07:13:58;4.07;;;2.08;;
27560;SDS011;15003;47.476;11.990;2022-09-13T07:16:25;3.65;;;2.13;;
27560;SDS011;15003;47.476;11.990;2022-09-13T07:18:56;4.78;;;2.08;;
27560;SDS011;15003;47.476;11.990;2022-09-13T07:21:25;4.18;;;2.22;;
27560;SDS011;15003;47.476;11.990;2022-09-13T07:23:52;4.00;;;2.08;;
27560;SDS011;15003;47.476;11.990;2022-09-13T07:26:20;2.63;;;1.90;;
27560;SDS011;15003;47.476;11.990;2022-09-13T07:28:48;3.10;;;2.10;;
27560;SDS011;15003;47.476;11.990;2022-09-13T07:31:23;2.40;;;1.80;;
27560;SDS011;15003;47.476;11.990;2022-09-13T07:33:54;2.70;;;1.88;;
27560;SDS011;15003;47.476;11.990;2022-09-13T07:36:22;3.20;;;1.63;;
27560;SDS011;15003;47.476;11.990;2022-09-13T07:38:49;2.97;;;1.60;;
27560;SDS011;15003;47.476;11.990;2022-09-13T07:41:16;2.78;;;1.50;;
27560;SDS011;15003;47.476;11.990;2022-09-13T07:43:47;3.63;;;1.70;;
27560;SDS011;15003;47.476;11.990;2022-09-13T07:46:14;3.63;;;1.73;;
27560;SDS011;15003;47.476;11.990;2022-09-13T07:48:43;2.60;;;1.55;;
27560;SDS011;15003;47.476;11.990;2022-09-13T07:51:11;2.83;;;1.40;;
27560;SDS011;15003;47.476;11.990;2022-09-13T07:53:40;1.55;;;1.20;;
27560;SDS011;15003;47.476;11.990;2022-09-13T07:56:09;1.70;;;1.35;;
27560;SDS011;15003;47.476;11.990;2022-09-13T07:58:40;2.72;;;1.30;;
27560;SDS011;15003;47.476;11.990;2022-09-13T08:01:10;1.92;;;1.45;;
27560;SDS011;15003;47.476;11.990;2022-09-13T08:03:43;1.95;;;1.23;;
27560;SDS011;15003;47.476;11.990;2022-09-13T08:06:15;1.58;;;1.02;;
27560;SDS011;15003;47.476;11.990;2022-09-13T08:08:40;1.70;;;1.30;;
27560;SDS011;15003;47.476;11.990;2022-09-13T08:11:06;2.17;;;1.27;;
27560;SDS011;15003;47.476;11.990;2022-09-13T08:13:32;2.35;;;1.20;;
27560;SDS011;15003;47.476;11.990;2022-09-13T08:16:04;2.38;;;1.20;;
27560;SDS011;15003;47.476;11.990;2022-09-13T08:18:31;1.92;;;1.35;;
27560;SDS011;15003;47.476;11.990;2022-09-13T08:20:57;2.78;;;1.30;;
27560;SDS011;15003;47.476;11.990;2022-09-13T08:23:24;1.58;;;1.15;;
27560;SDS011;15003;47.476;11.990;2022-09-13T08:25:51;1.90;;;1.20;;
27560;SDS011;15003;47.476;11.990;2022-09-13T08:28:18;2.38;;;1.30;;
27560;SDS011;15003;47.476;11.990;2022-09-13T08:30:45;2.85;;;1.42;;
27560;SDS011;15003;47.476;11.990;2022-09-13T08:33:12;1.60;;;1.00;;
27560;SDS011;15003;47.476;11.990;2022-09-13T08:35:38;2.13;;;1.10;;
27560;SDS011;15003;47.476;11.990;2022-09-13T08:38:05;1.85;;;1.20;;
27560;SDS011;15003;47.476;11.990;2022-09-13T08:40:42;1.73;;;1.27;;
27560;SDS011;15003;47.476;11.990;2022-09-13T08:48:51;2.40;;;1.20;;
27560;SDS011;15003;47.476;11.990;2022-09-13T08:51:31;1.42;;;1.20;;
27560;SDS011;15003;47.476;11.990;2022-09-13T08:54:04;2.25;;;1.35;;
27560;SDS011;15003;47.476;11.990;2022-09-13T09:05:19;4.35;;;1.70;;
27560;SDS011;15003;47.476;11.990;2022-09-13T09:13:17;1.92;;;1.23;;
27560;SDS011;15003;47.476;11.990;2022-09-13T09:15:58;2.03;;;1.15;;
27560;SDS011;15003;47.476;11.990;2022-09-13T09:18:56;1.85;;;0.90;;
27560;SDS011;15003;47.476;11.990;2022-09-13T09:21:31;3.38;;;1.30;;
27560;SDS011;15003;47.476;11.990;2022-09-13T09:23:57;3.28;;;1.33;;
27560;SDS011;15003;47.476;11.990;2022-09-13T09:26:26;2.05;;;1.08;;
27560;SDS011;15003;47.476;11.990;2022-09-13T09:28:55;1.30;;;1.00;;
27560;SDS011;15003;47.476;11.990;2022-09-13T09:37:16;2.42;;;1.40;;
27560;SDS011;15003;47.476;11.990;2022-09-13T09:39:45;3.25;;;1.20;;
27560;SDS011;15003;47.476;11.990;2022-09-13T09:42:17;1.65;;;1.00;;
27560;SDS011;15003;47.476;11.990;2022-09-13T09:44:48;1.30;;;1.10;;
27560;SDS011;15003;47.476;11.990;2022-09-13T09:47:18;1.27;;;1.17;;
27560;SDS011;15003;47.476;11.990;2022-09-13T09:49:58;2.33;;;1.13;;
27560;SDS011;15003;47.476;11.990;2022-09-13T09:55:48;2.03;;;1.20;;
27560;SDS011;15003;47.476;11.990;2022-09-13T09:58:37;1.83;;;1.00;;
27560;SDS011;15003;47.476;11.990;2022-09-13T10:01:04;2.17;;;1.00;;
27560;SDS011;15003;47.476;11.990;2022-09-13T10:04:00;3.00;;;1.20;;
27560;SDS011;15003;47.476;11.990;2022-09-13T10:06:40;1.48;;;1.05;;
27560;SDS011;15003;47.476;11.990;2022-09-13T10:11:39;1.65;;;1.02;;
27560;SDS011;15003;47.476;11.990;2022-09-13T10:19:53;1.35;;;1.05;;
27560;SDS011;15003;47.476;11.990;2022-09-13T10:22:44;1.10;;;1.00;;
27560;SDS011;15003;47.476;11.990;2022-09-13T10:25:39;1.00;;;0.80;;
27560;SDS011;15003;47.476;11.990;2022-09-13T10:28:16;1.88;;;1.00;;
27560;SDS011;15003;47.476;11.990;2022-09-13T10:33:23;2.08;;;0.73;;
27560;SDS011;15003;47.476;11.990;2022-09-13T10:35:55;2.58;;;0.80;;
27560;SDS011;15003;47.476;11.990;2022-09-13T10:38:32;1.33;;;0.77;;
27560;SDS011;15003;47.476;11.990;2022-09-13T10:41:06;1.17;;;0.90;;
27560;SDS011;15003;47.476;11.990;2022-09-13T10:43:35;1.80;;;0.80;;
27560;SDS011;15003;47.476;11.990;2022-09-13T10:46:03;0.93;;;0.80;;
27560;SDS011;15003;47.476;11.990;2022-09-13T10:48:42;1.05;;;0.80;;
27560;SDS011;15003;47.476;11.990;2022-09-13T10:53:51;1.70;;;0.90;;
27560;SDS011;15003;47.476;11.990;2022-09-13T10:56:31;0.73;;;0.73;;
27560;SDS011;15003;47.476;11.990;2022-09-13T11:07:28;2.10;;;0.90;;
27560;SDS011;15003;47.476;11.990;2022-09-13T11:13:06;0.73;;;0.70;;
27560;SDS011;15003;47.476;11.990;2022-09-13T11:29:37;0.93;;;0.88;;
27560;SDS011;15003;47.476;11.990;2022-09-13T11:32:44;1.42;;;0.88;;
27560;SDS011;15003;47.476;11.990;2022-09-13T11:55:26;2.05;;;0.70;;
27560;SDS011;15003;47.476;11.990;2022-09-13T11:57:59;1.45;;;0.70;;
27560;SDS011;15003;47.476;11.990;2022-09-13T12:00:34;2.80;;;0.90;;
27560;SDS011;15003;47.476;11.990;2022-09-13T12:05:38;0.80;;;0.80;;
27560;SDS011;15003;47.476;11.990;2022-09-13T12:13:21;3.67;;;1.38;;
27560;SDS011;15003;47.476;11.990;2022-09-13T12:15:58;3.78;;;1.15;;
27560;SDS011;15003;47.476;11.990;2022-09-13T12:18:46;3.35;;;1.13;;
27560;SDS011;15003;47.476;11.990;2022-09-13T12:21:16;3.15;;;1.00;;
27560;SDS011;15003;47.476;11.990;2022-09-13T12:26:31;2.47;;;1.00;;
27560;SDS011;15003;47.476;11.990;2022-09-13T12:32:14;2.05;;;1.20;;
27560;SDS011;15003;47.476;11.990;2022-09-13T12:35:05;2.53;;;1.27;;
27560;SDS011;15003;47.476;11.990;2022-09-13T12:58:28;1.50;;;0.90;;
27560;SDS011;15003;47.476;11.990;2022-09-13T13:01:09;3.05;;;1.30;;
27560;SDS011;15003;47.476;11.990;2022-09-13T13:03:43;1.23;;;1.00;;
27560;SDS011;15003;47.476;11.990;2022-09-13T13:08:58;3.28;;;1.00;;
27560;SDS011;15003;47.476;11.990;2022-09-13T13:11:44;3.53;;;1.20;;
27560;SDS011;15003;47.476;11.990;2022-09-13T13:26:11;3.50;;;1.65;;
27560;SDS011;15003;47.476;11.990;2022-09-13T13:29:24;2.83;;;1.48;;
27560;SDS011;15003;47.476;11.990;2022-09-13T13:39:33;3.10;;;1.40;;
27560;SDS011;15003;47.476;11.990;2022-09-13T13:44:56;4.10;;;1.60;;
27560;SDS011;15003;47.476;11.990;2022-09-13T13:47:51;3.45;;;1.50;;
27560;SDS011;15003;47.476;11.990;2022-09-13T13:53:37;2.45;;;1.30;;
27560;SDS011;15003;47.476;11.990;2022-09-13T13:56:28;4.15;;;1.75;;
27560;SDS011;15003;47.476;11.990;2022-09-13T13:59:15;1.65;;;1.15;;
27560;SDS011;15003;47.476;11.990;2022-09-13T14:01:56;1.45;;;1.13;;
27560;SDS011;15003;47.476;11.990;2022-09-13T14:04:36;1.02;;;1.00;;
27560;SDS011;15003;47.476;11.990;2022-09-13T14:10:26;2.70;;;1.33;;
27560;SDS011;15003;47.476;11.990;2022-09-13T14:21:30;2.40;;;1.60;;
27560;SDS011;15003;47.476;11.990;2022-09-13T14:26:58;4.70;;;1.20;;
27560;SDS011;15003;47.476;11.990;2022-09-13T14:29:24;1.02;;;0.90;;
27560;SDS011;15003;47.476;11.990;2022-09-13T14:31:51;1.02;;;0.80;;
27560;SDS011;15003;47.476;11.990;2022-09-13T14:34:22;1.25;;;0.80;;
27560;SDS011;15003;47.476;11.990;2022-09-13T14:36:58;0.90;;;0.70;;
27560;SDS011;15003;47.476;11.990;2022-09-13T14:39:27;3.50;;;0.90;;
27560;SDS011;15003;47.476;11.990;2022-09-13T14:42:00;2.25;;;1.00;;
27560;SDS011;15003;47.476;11.990;2022-09-13T14:44:37;2.17;;;0.70;;
27560;SDS011;15003;47.476;11.990;2022-09-13T14:49:51;2.25;;;0.93;;
27560;SDS011;15003;47.476;11.990;2022-09-13T14:52:33;1.45;;;1.00;;
27560;SDS011;15003;47.476;11.990;2022-09-13T14:55:04;2.35;;;1.00;;
27560;SDS011;15003;47.476;11.990;2022-09-13T14:57:39;2.72;;;1.05;;
27560;SDS011;15003;47.476;11.990;2022-09-13T15:00:18;1.98;;;1.27;;
27560;SDS011;15003;47.476;11.990;2022-09-13T15:02:51;0.93;;;0.80;;
27560;SDS011;15003;47.476;11.990;2022-09-13T15:05:28;1.25;;;1.10;;
